createdAt,value
2023-02-23T06:19:19.088Z,7.06
2023-02-23T06:29:19.078Z,7.05
2023-02-23T06:39:19.084Z,7.07
2023-02-23T06:49:19.175Z,7.04
2023-02-23T06:59:19.104Z,7.11
2023-02-23T07:09:19.142Z,7.19
2023-02-23T07:19:19.057Z,7.24
2023-02-23T07:29:18.988Z,7.31
2023-02-23T07:39:19.245Z,7.37
2023-02-23T07:49:19.271Z,7.42
2023-02-23T07:59:19.096Z,7.44
2023-02-23T08:09:19.185Z,7.46
2023-02-23T08:19:19.255Z,7.46
2023-02-23T08:29:19.133Z,7.46
2023-02-23T08:39:19.271Z,7.46
2023-02-23T08:49:19.473Z,7.41
2023-02-23T08:59:19.699Z,7.43
2023-02-23T09:09:19.572Z,7.37
2023-02-23T09:19:19.344Z,7.35
2023-02-23T09:29:19.550Z,7.33
2023-02-23T09:39:29.118Z,7.32
2023-02-23T09:49:19.457Z,7.39
2023-02-23T09:59:19.661Z,7.33
2023-02-23T10:09:19.587Z,7.36
2023-02-23T10:19:19.619Z,7.39
2023-02-23T10:29:19.587Z,7.29
2023-02-23T10:39:19.609Z,7.30
2023-02-23T10:49:19.675Z,7.32
2023-02-23T10:59:19.578Z,7.46
2023-02-23T11:09:20.528Z,7.44
2023-02-23T11:19:19.646Z,7.51
2023-02-23T11:29:19.669Z,7.58
2023-02-23T11:39:19.592Z,7.61
2023-02-23T11:49:19.739Z,7.84
2023-02-23T11:59:19.702Z,7.72
2023-02-23T12:09:19.638Z,7.72
2023-02-23T12:19:19.480Z,7.74
2023-02-23T12:29:19.613Z,7.63
2023-02-23T12:39:19.629Z,7.60
2023-02-23T12:49:19.496Z,7.57
2023-02-23T12:59:19.446Z,7.60
2023-02-23T13:09:19.488Z,7.53
2023-02-23T13:19:20.478Z,7.53
2023-02-23T13:29:19.554Z,7.52
2023-02-23T13:39:19.713Z,7.30
2023-02-23T13:49:19.529Z,7.19
2023-02-23T13:59:19.524Z,7.32
2023-02-23T14:09:19.524Z,7.22
2023-02-23T14:19:19.564Z,7.24
2023-02-23T14:29:20.702Z,7.18
2023-02-23T14:39:20.641Z,7.18
2023-02-23T14:49:19.610Z,7.17
2023-02-23T14:59:19.609Z,7.16
2023-02-23T15:09:19.629Z,7.15
2023-02-23T15:19:19.668Z,7.15
2023-02-23T15:29:19.650Z,7.11
2023-02-23T15:39:19.688Z,7.10
2023-02-23T15:49:19.731Z,7.02
2023-02-23T15:59:19.724Z,6.98
2023-02-23T16:09:19.797Z,6.93
2023-02-23T16:19:19.727Z,6.89
2023-02-23T16:29:19.748Z,6.87
2023-02-23T16:39:19.931Z,6.75
2023-02-23T16:49:19.701Z,6.62
2023-02-23T16:59:19.798Z,6.55
2023-02-23T17:09:19.787Z,6.52
2023-02-23T17:29:19.806Z,5.90
2023-02-23T17:39:19.889Z,5.81
2023-02-23T17:49:19.949Z,5.79
2023-02-23T17:59:19.931Z,5.63
2023-02-23T18:09:19.964Z,5.59
2023-02-23T18:19:19.970Z,5.55
2023-02-23T18:29:19.955Z,5.54
2023-02-23T18:39:19.989Z,5.48
2023-02-23T18:49:19.968Z,5.45
2023-02-23T18:59:20.077Z,5.45
2023-02-23T19:09:20.187Z,5.46
2023-02-23T19:19:20.344Z,5.47
